CRP weather

Corpus Christi International Airport
Corpus Christi, Texas, United States

Public forecast

Using degrees Fahrenheit for public forecast. Weather courtesy of forecast.io.

METAR (pilot weather report)

Retrieved 2019/06/19 20:51 UTC (22 minutes ago):

KCRP 192051Z 13017G22KT 10SM FEW025 FEW032 FEW180 SCT250 34/26 A2979 RMK AO2 SLP087 T03440261 58018

TAF (pilot weather forecast)

Retrieved 2019/06/19 18:24 UTC (3 hours ago):

TAF KCRP 191721Z 1918/2018 18012G17KT P6SM FEW026 SCT250 FM200600 17010KT P6SM SCT030 BKN250 FM201500 18015KT P6SM BKN050